sensor_id;sensor_type;location;lat;lon;timestamp;P1;durP1;ratioP1;P2;durP2;ratioP2
34952;SDS011;21164;54.378;10.202;2022-08-01T00:00:27;13.63;;;12.32;;
34952;SDS011;21164;54.378;10.202;2022-08-01T00:02:53;13.50;;;12.10;;
34952;SDS011;21164;54.378;10.202;2022-08-01T00:05:18;15.50;;;12.77;;
34952;SDS011;21164;54.378;10.202;2022-08-01T00:07:44;15.43;;;13.27;;
34952;SDS011;21164;54.378;10.202;2022-08-01T00:10:11;15.52;;;13.57;;
34952;SDS011;21164;54.378;10.202;2022-08-01T00:12:38;16.17;;;14.15;;
34952;SDS011;21164;54.378;10.202;2022-08-01T00:15:05;15.93;;;14.32;;
34952;SDS011;21164;54.378;10.202;2022-08-01T00:17:33;15.93;;;14.32;;
34952;SDS011;21164;54.378;10.202;2022-08-01T00:19:58;16.70;;;14.93;;
34952;SDS011;21164;54.378;10.202;2022-08-01T00:22:24;18.60;;;16.67;;
34952;SDS011;21164;54.378;10.202;2022-08-01T00:24:50;18.77;;;15.63;;
34952;SDS011;21164;54.378;10.202;2022-08-01T00:27:15;18.02;;;16.25;;
34952;SDS011;21164;54.378;10.202;2022-08-01T00:29:41;17.70;;;15.73;;
34952;SDS011;21164;54.378;10.202;2022-08-01T00:32:06;17.13;;;15.38;;
34952;SDS011;21164;54.378;10.202;2022-08-01T00:34:32;18.48;;;16.63;;
34952;SDS011;21164;54.378;10.202;2022-08-01T00:36:58;20.55;;;18.45;;
34952;SDS011;21164;54.378;10.202;2022-08-01T00:39:24;19.10;;;17.17;;
34952;SDS011;21164;54.378;10.202;2022-08-01T00:41:49;21.67;;;17.15;;
34952;SDS011;21164;54.378;10.202;2022-08-01T00:44:15;21.85;;;19.48;;
34952;SDS011;21164;54.378;10.202;2022-08-01T00:46:41;23.92;;;18.77;;
34952;SDS011;21164;54.378;10.202;2022-08-01T00:49:06;28.70;;;20.33;;
34952;SDS011;21164;54.378;10.202;2022-08-01T00:51:32;24.20;;;20.80;;
34952;SDS011;21164;54.378;10.202;2022-08-01T00:53:59;24.45;;;20.35;;
34952;SDS011;21164;54.378;10.202;2022-08-01T00:56:25;26.13;;;22.02;;
34952;SDS011;21164;54.378;10.202;2022-08-01T00:58:52;30.75;;;23.75;;
34952;SDS011;21164;54.378;10.202;2022-08-01T01:01:19;31.50;;;23.17;;
34952;SDS011;21164;54.378;10.202;2022-08-01T01:03:51;31.92;;;24.95;;
34952;SDS011;21164;54.378;10.202;2022-08-01T01:06:25;33.50;;;26.13;;
34952;SDS011;21164;54.378;10.202;2022-08-01T01:11:26;35.78;;;27.25;;
34952;SDS011;21164;54.378;10.202;2022-08-01T01:14:08;36.47;;;27.35;;
34952;SDS011;21164;54.378;10.202;2022-08-01T01:16:38;39.67;;;27.13;;
34952;SDS011;21164;54.378;10.202;2022-08-01T01:19:06;40.83;;;28.98;;
34952;SDS011;21164;54.378;10.202;2022-08-01T01:21:47;42.33;;;28.38;;
34952;SDS011;21164;54.378;10.202;2022-08-01T01:27:29;39.05;;;25.20;;
34952;SDS011;21164;54.378;10.202;2022-08-01T01:30:12;37.93;;;24.57;;
34952;SDS011;21164;54.378;10.202;2022-08-01T01:37:34;38.92;;;23.63;;
34952;SDS011;21164;54.378;10.202;2022-08-01T01:40:03;42.45;;;25.63;;
34952;SDS011;21164;54.378;10.202;2022-08-01T01:42:30;39.25;;;24.20;;
34952;SDS011;21164;54.378;10.202;2022-08-01T01:44:58;39.30;;;25.10;;
34952;SDS011;21164;54.378;10.202;2022-08-01T01:47:25;41.25;;;24.15;;
34952;SDS011;21164;54.378;10.202;2022-08-01T01:49:52;40.63;;;25.52;;
34952;SDS011;21164;54.378;10.202;2022-08-01T01:52:20;37.65;;;24.77;;
34952;SDS011;21164;54.378;10.202;2022-08-01T01:54:49;38.33;;;24.40;;
34952;SDS011;21164;54.378;10.202;2022-08-01T01:57:16;41.83;;;24.13;;
34952;SDS011;21164;54.378;10.202;2022-08-01T01:59:43;38.15;;;23.77;;
34952;SDS011;21164;54.378;10.202;2022-08-01T02:02:11;37.00;;;24.83;;
34952;SDS011;21164;54.378;10.202;2022-08-01T02:04:39;37.15;;;23.33;;
34952;SDS011;21164;54.378;10.202;2022-08-01T02:07:07;33.78;;;22.77;;
34952;SDS011;21164;54.378;10.202;2022-08-01T02:09:37;35.22;;;23.83;;
34952;SDS011;21164;54.378;10.202;2022-08-01T02:12:05;33.80;;;22.33;;
34952;SDS011;21164;54.378;10.202;2022-08-01T02:14:32;31.75;;;22.08;;
34952;SDS011;21164;54.378;10.202;2022-08-01T02:17:00;32.53;;;22.38;;
34952;SDS011;21164;54.378;10.202;2022-08-01T02:19:28;31.52;;;20.85;;
34952;SDS011;21164;54.378;10.202;2022-08-01T02:22:00;34.28;;;21.83;;
34952;SDS011;21164;54.378;10.202;2022-08-01T02:27:02;33.08;;;23.85;;
34952;SDS011;21164;54.378;10.202;2022-08-01T02:29:38;35.30;;;23.00;;
34952;SDS011;21164;54.378;10.202;2022-08-01T02:32:08;36.17;;;23.65;;
34952;SDS011;21164;54.378;10.202;2022-08-01T02:34:39;38.95;;;23.73;;
34952;SDS011;21164;54.378;10.202;2022-08-01T02:37:06;37.50;;;23.13;;
34952;SDS011;21164;54.378;10.202;2022-08-01T02:39:34;34.22;;;23.17;;
34952;SDS011;21164;54.378;10.202;2022-08-01T02:42:02;34.67;;;22.48;;
34952;SDS011;21164;54.378;10.202;2022-08-01T02:44:32;34.25;;;23.67;;
34952;SDS011;21164;54.378;10.202;2022-08-01T02:47:02;33.83;;;22.60;;
34952;SDS011;21164;54.378;10.202;2022-08-01T02:49:31;34.55;;;21.63;;
34952;SDS011;21164;54.378;10.202;2022-08-01T02:51:59;33.63;;;20.90;;
34952;SDS011;21164;54.378;10.202;2022-08-01T02:54:29;29.13;;;21.10;;
34952;SDS011;21164;54.378;10.202;2022-08-01T02:56:55;26.27;;;19.92;;
34952;SDS011;21164;54.378;10.202;2022-08-01T02:59:22;31.02;;;19.92;;
34952;SDS011;21164;54.378;10.202;2022-08-01T03:01:51;33.05;;;20.45;;
34952;SDS011;21164;54.378;10.202;2022-08-01T03:04:19;31.33;;;21.00;;
34952;SDS011;21164;54.378;10.202;2022-08-01T03:06:46;28.38;;;19.88;;
34952;SDS011;21164;54.378;10.202;2022-08-01T03:09:13;32.03;;;20.95;;
34952;SDS011;21164;54.378;10.202;2022-08-01T03:11:39;27.83;;;19.42;;
34952;SDS011;21164;54.378;10.202;2022-08-01T03:14:07;31.52;;;20.52;;
34952;SDS011;21164;54.378;10.202;2022-08-01T03:16:35;32.95;;;22.35;;
34952;SDS011;21164;54.378;10.202;2022-08-01T03:19:02;32.08;;;21.58;;
34952;SDS011;21164;54.378;10.202;2022-08-01T03:21:29;28.63;;;20.27;;
34952;SDS011;21164;54.378;10.202;2022-08-01T03:23:58;31.02;;;21.90;;
34952;SDS011;21164;54.378;10.202;2022-08-01T03:26:26;26.92;;;21.08;;
34952;SDS011;21164;54.378;10.202;2022-08-01T03:28:55;29.20;;;20.25;;
34952;SDS011;21164;54.378;10.202;2022-08-01T03:31:24;28.02;;;18.80;;
34952;SDS011;21164;54.378;10.202;2022-08-01T03:33:51;26.58;;;18.95;;
34952;SDS011;21164;54.378;10.202;2022-08-01T03:38:45;25.83;;;19.23;;
34952;SDS011;21164;54.378;10.202;2022-08-01T03:41:13;28.38;;;19.33;;
34952;SDS011;21164;54.378;10.202;2022-08-01T03:43:56;24.20;;;18.25;;
34952;SDS011;21164;54.378;10.202;2022-08-01T03:46:36;29.30;;;18.08;;
34952;SDS011;21164;54.378;10.202;2022-08-01T03:49:05;28.77;;;18.58;;
34952;SDS011;21164;54.378;10.202;2022-08-01T03:51:39;28.77;;;18.42;;
34952;SDS011;21164;54.378;10.202;2022-08-01T03:54:05;25.30;;;17.10;;
34952;SDS011;21164;54.378;10.202;2022-08-01T03:56:33;23.45;;;17.40;;
34952;SDS011;21164;54.378;10.202;2022-08-01T03:59:00;24.92;;;16.80;;
34952;SDS011;21164;54.378;10.202;2022-08-01T04:01:27;21.25;;;15.70;;
34952;SDS011;21164;54.378;10.202;2022-08-01T04:03:55;19.15;;;16.10;;
34952;SDS011;21164;54.378;10.202;2022-08-01T04:06:24;23.67;;;17.23;;
34952;SDS011;21164;54.378;10.202;2022-08-01T04:08:49;19.98;;;14.45;;
34952;SDS011;21164;54.378;10.202;2022-08-01T04:11:25;19.63;;;15.05;;
34952;SDS011;21164;54.378;10.202;2022-08-01T04:13:52;17.63;;;14.13;;
34952;SDS011;21164;54.378;10.202;2022-08-01T04:16:19;18.80;;;14.13;;
34952;SDS011;21164;54.378;10.202;2022-08-01T04:18:45;15.95;;;12.68;;
34952;SDS011;21164;54.378;10.202;2022-08-01T04:21:11;16.30;;;12.98;;
34952;SDS011;21164;54.378;10.202;2022-08-01T04:23:38;19.75;;;14.07;;
34952;SDS011;21164;54.378;10.202;2022-08-01T04:26:06;19.20;;;13.80;;
34952;SDS011;21164;54.378;10.202;2022-08-01T04:28:34;20.25;;;13.90;;
34952;SDS011;21164;54.378;10.202;2022-08-01T04:31:02;20.80;;;13.57;;
34952;SDS011;21164;54.378;10.202;2022-08-01T04:33:31;18.27;;;12.50;;
34952;SDS011;21164;54.378;10.202;2022-08-01T04:35:58;15.98;;;12.82;;
34952;SDS011;21164;54.378;10.202;2022-08-01T04:38:26;15.43;;;12.48;;
34952;SDS011;21164;54.378;10.202;2022-08-01T04:40:53;19.95;;;12.27;;
34952;SDS011;21164;54.378;10.202;2022-08-01T04:43:21;16.15;;;13.23;;
34952;SDS011;21164;54.378;10.202;2022-08-01T04:45:47;15.70;;;11.90;;
34952;SDS011;21164;54.378;10.202;2022-08-01T04:48:16;16.20;;;12.35;;
34952;SDS011;21164;54.378;10.202;2022-08-01T04:50:44;20.73;;;13.40;;
34952;SDS011;21164;54.378;10.202;2022-08-01T04:53:17;16.70;;;13.40;;
34952;SDS011;21164;54.378;10.202;2022-08-01T04:55:46;16.25;;;12.15;;
34952;SDS011;21164;54.378;10.202;2022-08-01T04:58:12;15.95;;;12.45;;
34952;SDS011;21164;54.378;10.202;2022-08-01T05:00:39;29.45;;;13.60;;
34952;SDS011;21164;54.378;10.202;2022-08-01T05:03:05;23.33;;;12.40;;
34952;SDS011;21164;54.378;10.202;2022-08-01T05:05:30;20.42;;;13.77;;
34952;SDS011;21164;54.378;10.202;2022-08-01T05:10:22;16.27;;;12.80;;
34952;SDS011;21164;54.378;10.202;2022-08-01T05:12:48;18.08;;;13.25;;
34952;SDS011;21164;54.378;10.202;2022-08-01T05:15:13;19.90;;;13.35;;
34952;SDS011;21164;54.378;10.202;2022-08-01T05:17:39;20.92;;;13.00;;
34952;SDS011;21164;54.378;10.202;2022-08-01T05:20:07;15.23;;;11.68;;
34952;SDS011;21164;54.378;10.202;2022-08-01T05:22:33;17.98;;;13.20;;
34952;SDS011;21164;54.378;10.202;2022-08-01T05:24:58;17.58;;;12.15;;
34952;SDS011;21164;54.378;10.202;2022-08-01T05:27:24;15.25;;;12.35;;
34952;SDS011;21164;54.378;10.202;2022-08-01T05:29:50;15.23;;;11.90;;
34952;SDS011;21164;54.378;10.202;2022-08-01T05:32:16;21.13;;;11.68;;
34952;SDS011;21164;54.378;10.202;2022-08-01T05:34:41;14.50;;;11.18;;
34952;SDS011;21164;54.378;10.202;2022-08-01T05:37:07;17.35;;;11.70;;
34952;SDS011;21164;54.378;10.202;2022-08-01T05:39:33;15.45;;;11.45;;
34952;SDS011;21164;54.378;10.202;2022-08-01T05:41:58;17.98;;;12.18;;
34952;SDS011;21164;54.378;10.202;2022-08-01T05:44:24;18.10;;;11.68;;
34952;SDS011;21164;54.378;10.202;2022-08-01T05:46:50;14.38;;;10.02;;
34952;SDS011;21164;54.378;10.202;2022-08-01T05:49:16;14.57;;;10.75;;
34952;SDS011;21164;54.378;10.202;2022-08-01T05:51:41;15.27;;;10.52;;
34952;SDS011;21164;54.378;10.202;2022-08-01T05:54:07;16.05;;;10.27;;
34952;SDS011;21164;54.378;10.202;2022-08-01T05:56:33;14.02;;;9.85;;
34952;SDS011;21164;54.378;10.202;2022-08-01T05:58:58;16.15;;;9.07;;
34952;SDS011;21164;54.378;10.202;2022-08-01T06:01:24;12.18;;;8.93;;
34952;SDS011;21164;54.378;10.202;2022-08-01T06:03:50;16.52;;;8.85;;
34952;SDS011;21164;54.378;10.202;2022-08-01T06:06:15;14.45;;;8.52;;
34952;SDS011;21164;54.378;10.202;2022-08-01T06:08:41;11.18;;;7.82;;
34952;SDS011;21164;54.378;10.202;2022-08-01T06:11:07;9.13;;;7.57;;
34952;SDS011;21164;54.378;10.202;2022-08-01T06:13:33;10.43;;;8.07;;
34952;SDS011;21164;54.378;10.202;2022-08-01T06:15:58;11.50;;;7.93;;
34952;SDS011;21164;54.378;10.202;2022-08-01T06:18:24;16.83;;;8.15;;
34952;SDS011;21164;54.378;10.202;2022-08-01T06:20:50;9.18;;;6.80;;
34952;SDS011;21164;54.378;10.202;2022-08-01T06:23:15;9.73;;;6.32;;
34952;SDS011;21164;54.378;10.202;2022-08-01T06:25:42;9.93;;;4.65;;
34952;SDS011;21164;54.378;10.202;2022-08-01T06:28:08;8.18;;;4.70;;
34952;SDS011;21164;54.378;10.202;2022-08-01T06:30:33;8.77;;;4.05;;
34952;SDS011;21164;54.378;10.202;2022-08-01T06:32:59;7.60;;;4.18;;
34952;SDS011;21164;54.378;10.202;2022-08-01T06:35:25;5.82;;;3.13;;
34952;SDS011;21164;54.378;10.202;2022-08-01T06:37:51;8.00;;;3.40;;
34952;SDS011;21164;54.378;10.202;2022-08-01T06:40:17;8.82;;;3.08;;
34952;SDS011;21164;54.378;10.202;2022-08-01T06:42:43;4.60;;;2.88;;
34952;SDS011;21164;54.378;10.202;2022-08-01T06:45:11;5.65;;;2.70;;
34952;SDS011;21164;54.378;10.202;2022-08-01T06:47:37;5.85;;;3.00;;
34952;SDS011;21164;54.378;10.202;2022-08-01T06:50:05;7.70;;;3.20;;
34952;SDS011;21164;54.378;10.202;2022-08-01T06:52:32;11.35;;;4.53;;
34952;SDS011;21164;54.378;10.202;2022-08-01T06:54:58;7.97;;;4.13;;
34952;SDS011;21164;54.378;10.202;2022-08-01T06:57:24;9.10;;;5.28;;
34952;SDS011;21164;54.378;10.202;2022-08-01T06:59:49;13.63;;;5.47;;
34952;SDS011;21164;54.378;10.202;2022-08-01T07:02:15;7.72;;;5.15;;
34952;SDS011;21164;54.378;10.202;2022-08-01T07:04:41;10.48;;;5.00;;
34952;SDS011;21164;54.378;10.202;2022-08-01T07:07:06;11.68;;;4.50;;
34952;SDS011;21164;54.378;10.202;2022-08-01T07:09:32;13.00;;;5.28;;
34952;SDS011;21164;54.378;10.202;2022-08-01T07:11:57;7.63;;;4.03;;
34952;SDS011;21164;54.378;10.202;2022-08-01T07:14:23;10.30;;;3.85;;
34952;SDS011;21164;54.378;10.202;2022-08-01T07:16:49;12.15;;;3.60;;
34952;SDS011;21164;54.378;10.202;2022-08-01T07:19:15;9.88;;;2.95;;
34952;SDS011;21164;54.378;10.202;2022-08-01T07:24:07;10.48;;;3.10;;
34952;SDS011;21164;54.378;10.202;2022-08-01T07:26:34;9.65;;;2.95;;
34952;SDS011;21164;54.378;10.202;2022-08-01T07:28:59;6.97;;;2.38;;
34952;SDS011;21164;54.378;10.202;2022-08-01T07:31:25;5.25;;;2.00;;
34952;SDS011;21164;54.378;10.202;2022-08-01T07:36:17;5.35;;;2.13;;
34952;SDS011;21164;54.378;10.202;2022-08-01T07:38:43;5.65;;;2.13;;
34952;SDS011;21164;54.378;10.202;2022-08-01T07:41:10;7.97;;;2.53;;
34952;SDS011;21164;54.378;10.202;2022-08-01T07:43:36;16.23;;;2.83;;
34952;SDS011;21164;54.378;10.202;2022-08-01T07:46:02;9.30;;;2.80;;
34952;SDS011;21164;54.378;10.202;2022-08-01T07:48:28;8.65;;;2.47;;
34952;SDS011;21164;54.378;10.202;2022-08-01T07:50:54;10.35;;;2.35;;
34952;SDS011;21164;54.378;10.202;2022-08-01T07:53:20;7.50;;;2.42;;
34952;SDS011;21164;54.378;10.202;2022-08-01T07:55:46;10.93;;;2.78;;
34952;SDS011;21164;54.378;10.202;2022-08-01T07:58:12;11.23;;;2.92;;
34952;SDS011;21164;54.378;10.202;2022-08-01T08:00:38;12.18;;;3.47;;
34952;SDS011;21164;54.378;10.202;2022-08-01T08:03:04;9.40;;;3.00;;
34952;SDS011;21164;54.378;10.202;2022-08-01T08:05:30;8.85;;;3.22;;
34952;SDS011;21164;54.378;10.202;2022-08-01T08:07:59;8.10;;;2.88;;
34952;SDS011;21164;54.378;10.202;2022-08-01T08:10:32;9.88;;;3.63;;
34952;SDS011;21164;54.378;10.202;2022-08-01T08:12:59;6.97;;;2.70;;
34952;SDS011;21164;54.378;10.202;2022-08-01T08:15:26;9.55;;;3.15;;
34952;SDS011;21164;54.378;10.202;2022-08-01T08:17:52;15.82;;;3.20;;
34952;SDS011;21164;54.378;10.202;2022-08-01T08:20:17;12.82;;;3.10;;
34952;SDS011;21164;54.378;10.202;2022-08-01T08:22:43;9.38;;;2.90;;
34952;SDS011;21164;54.378;10.202;2022-08-01T08:25:09;8.68;;;3.03;;
34952;SDS011;21164;54.378;10.202;2022-08-01T08:27:35;12.13;;;2.67;;
34952;SDS011;21164;54.378;10.202;2022-08-01T08:30:01;11.57;;;2.53;;
34952;SDS011;21164;54.378;10.202;2022-08-01T08:32:30;11.35;;;2.75;;
34952;SDS011;21164;54.378;10.202;2022-08-01T08:34:56;12.77;;;2.58;;
34952;SDS011;21164;54.378;10.202;2022-08-01T08:37:22;14.70;;;3.00;;
34952;SDS011;21164;54.378;10.202;2022-08-01T08:39:47;13.00;;;2.95;;
34952;SDS011;21164;54.378;10.202;2022-08-01T08:42:13;16.40;;;3.13;;
34952;SDS011;21164;54.378;10.202;2022-08-01T08:44:42;11.68;;;3.28;;
34952;SDS011;21164;54.378;10.202;2022-08-01T08:47:08;16.20;;;3.35;;
34952;SDS011;21164;54.378;10.202;2022-08-01T08:49:36;13.25;;;3.63;;
34952;SDS011;21164;54.378;10.202;2022-08-01T08:54:29;16.38;;;3.38;;
34952;SDS011;21164;54.378;10.202;2022-08-01T08:56:56;12.25;;;3.15;;
34952;SDS011;21164;54.378;10.202;2022-08-01T08:59:23;12.15;;;2.95;;
34952;SDS011;21164;54.378;10.202;2022-08-01T09:01:50;12.27;;;2.72;;
34952;SDS011;21164;54.378;10.202;2022-08-01T09:04:16;11.73;;;2.60;;
34952;SDS011;21164;54.378;10.202;2022-08-01T09:06:42;11.50;;;3.75;;
34952;SDS011;21164;54.378;10.202;2022-08-01T09:09:07;11.80;;;3.03;;
34952;SDS011;21164;54.378;10.202;2022-08-01T09:11:34;11.07;;;3.08;;
34952;SDS011;21164;54.378;10.202;2022-08-01T09:14:05;14.55;;;2.88;;
34952;SDS011;21164;54.378;10.202;2022-08-01T09:16:38;11.90;;;2.70;;
34952;SDS011;21164;54.378;10.202;2022-08-01T09:19:13;13.98;;;2.97;;
34952;SDS011;21164;54.378;10.202;2022-08-01T09:21:54;8.82;;;2.80;;
34952;SDS011;21164;54.378;10.202;2022-08-01T09:24:20;11.95;;;2.63;;
34952;SDS011;21164;54.378;10.202;2022-08-01T09:26:46;10.55;;;2.60;;
34952;SDS011;21164;54.378;10.202;2022-08-01T09:29:20;14.05;;;3.35;;
34952;SDS011;21164;54.378;10.202;2022-08-01T09:31:51;14.23;;;3.45;;
34952;SDS011;21164;54.378;10.202;2022-08-01T09:34:23;13.55;;;3.15;;
34952;SDS011;21164;54.378;10.202;2022-08-01T09:36:56;11.82;;;2.85;;
34952;SDS011;21164;54.378;10.202;2022-08-01T09:39:23;13.25;;;3.00;;
34952;SDS011;21164;54.378;10.202;2022-08-01T09:41:51;15.50;;;3.08;;
34952;SDS011;21164;54.378;10.202;2022-08-01T09:44:19;9.45;;;2.50;;
34952;SDS011;21164;54.378;10.202;2022-08-01T09:47:04;13.15;;;3.05;;
34952;SDS011;21164;54.378;10.202;2022-08-01T09:49:31;8.93;;;2.65;;
34952;SDS011;21164;54.378;10.202;2022-08-01T09:51:59;9.00;;;2.70;;
34952;SDS011;21164;54.378;10.202;2022-08-01T09:54:39;9.38;;;2.25;;
34952;SDS011;21164;54.378;10.202;2022-08-01T09:57:13;11.00;;;2.42;;
34952;SDS011;21164;54.378;10.202;2022-08-01T09:59:44;11.35;;;3.13;;
34952;SDS011;21164;54.378;10.202;2022-08-01T10:02:12;10.63;;;2.38;;
34952;SDS011;21164;54.378;10.202;2022-08-01T10:05:14;10.57;;;2.55;;
34952;SDS011;21164;54.378;10.202;2022-08-01T10:07:35;11.60;;;2.30;;
34952;SDS011;21164;54.378;10.202;2022-08-01T10:10:19;9.05;;;2.55;;
34952;SDS011;21164;54.378;10.202;2022-08-01T10:12:45;12.68;;;2.85;;
34952;SDS011;21164;54.378;10.202;2022-08-01T10:15:13;11.40;;;2.50;;
34952;SDS011;21164;54.378;10.202;2022-08-01T10:17:41;10.25;;;2.45;;
34952;SDS011;21164;54.378;10.202;2022-08-01T10:20:27;9.93;;;2.33;;
34952;SDS011;21164;54.378;10.202;2022-08-01T10:22:57;9.05;;;2.67;;
34952;SDS011;21164;54.378;10.202;2022-08-01T10:25:28;6.75;;;2.10;;
34952;SDS011;21164;54.378;10.202;2022-08-01T10:28:00;8.60;;;2.30;;
34952;SDS011;21164;54.378;10.202;2022-08-01T10:30:28;10.35;;;2.47;;
34952;SDS011;21164;54.378;10.202;2022-08-01T10:32:54;10.25;;;1.92;;
34952;SDS011;21164;54.378;10.202;2022-08-01T10:35:21;7.43;;;2.10;;
34952;SDS011;21164;54.378;10.202;2022-08-01T10:40:15;8.13;;;2.10;;
34952;SDS011;21164;54.378;10.202;2022-08-01T10:42:42;8.40;;;2.60;;
34952;SDS011;21164;54.378;10.202;2022-08-01T10:45:09;7.25;;;1.95;;
34952;SDS011;21164;54.378;10.202;2022-08-01T10:50:19;6.93;;;1.83;;
34952;SDS011;21164;54.378;10.202;2022-08-01T10:53:30;7.82;;;1.92;;
34952;SDS011;21164;54.378;10.202;2022-08-01T10:58:13;9.98;;;1.88;;
34952;SDS011;21164;54.378;10.202;2022-08-01T11:00:44;8.18;;;1.98;;
34952;SDS011;21164;54.378;10.202;2022-08-01T11:03:10;10.27;;;1.92;;
34952;SDS011;21164;54.378;10.202;2022-08-01T11:05:35;11.57;;;2.28;;
34952;SDS011;21164;54.378;10.202;2022-08-01T11:13:12;4.90;;;1.30;;
34952;SDS011;21164;54.378;10.202;2022-08-01T11:15:39;8.77;;;2.20;;
34952;SDS011;21164;54.378;10.202;2022-08-01T11:23:22;5.05;;;1.55;;
34952;SDS011;21164;54.378;10.202;2022-08-01T11:31:25;8.30;;;1.80;;
34952;SDS011;21164;54.378;10.202;2022-08-01T11:43:54;6.43;;;2.20;;
34952;SDS011;21164;54.378;10.202;2022-08-01T11:54:33;13.18;;;2.30;;
34952;SDS011;21164;54.378;10.202;2022-08-01T11:57:05;8.07;;;1.40;;
34952;SDS011;21164;54.378;10.202;2022-08-01T12:02:25;8.30;;;1.98;;
34952;SDS011;21164;54.378;10.202;2022-08-01T12:04:56;6.82;;;1.77;;
34952;SDS011;21164;54.378;10.202;2022-08-01T12:07:23;7.05;;;1.90;;
34952;SDS011;21164;54.378;10.202;2022-08-01T12:09:58;7.35;;;2.00;;
34952;SDS011;21164;54.378;10.202;2022-08-01T12:12:34;7.50;;;1.67;;
34952;SDS011;21164;54.378;10.202;2022-08-01T12:15:01;8.85;;;1.65;;
34952;SDS011;21164;54.378;10.202;2022-08-01T12:17:39;10.38;;;2.00;;
34952;SDS011;21164;54.378;10.202;2022-08-01T12:20:10;8.82;;;2.03;;
34952;SDS011;21164;54.378;10.202;2022-08-01T12:22:40;5.63;;;2.03;;
34952;SDS011;21164;54.378;10.202;2022-08-01T12:27:35;9.10;;;1.83;;
34952;SDS011;21164;54.378;10.202;2022-08-01T12:30:02;7.28;;;2.08;;
34952;SDS011;21164;54.378;10.202;2022-08-01T12:32:32;6.63;;;1.90;;
34952;SDS011;21164;54.378;10.202;2022-08-01T12:35:02;6.10;;;1.83;;
34952;SDS011;21164;54.378;10.202;2022-08-01T12:37:27;8.55;;;1.52;;
34952;SDS011;21164;54.378;10.202;2022-08-01T12:42:19;7.22;;;1.40;;
34952;SDS011;21164;54.378;10.202;2022-08-01T12:47:12;6.63;;;1.33;;
34952;SDS011;21164;54.378;10.202;2022-08-01T12:49:40;6.75;;;1.88;;
34952;SDS011;21164;54.378;10.202;2022-08-01T12:52:06;5.82;;;1.45;;
34952;SDS011;21164;54.378;10.202;2022-08-01T12:57:23;4.32;;;1.55;;
34952;SDS011;21164;54.378;10.202;2022-08-01T12:59:52;5.78;;;1.52;;
34952;SDS011;21164;54.378;10.202;2022-08-01T13:02:18;9.38;;;1.77;;
34952;SDS011;21164;54.378;10.202;2022-08-01T13:07:18;6.95;;;1.77;;
34952;SDS011;21164;54.378;10.202;2022-08-01T13:12:16;5.30;;;1.83;;
34952;SDS011;21164;54.378;10.202;2022-08-01T13:17:07;5.55;;;1.65;;
34952;SDS011;21164;54.378;10.202;2022-08-01T13:22:08;5.03;;;1.20;;
34952;SDS011;21164;54.378;10.202;2022-08-01T13:27:00;5.53;;;1.45;;
34952;SDS011;21164;54.378;10.202;2022-08-01T13:29:35;5.07;;;1.65;;
34952;SDS011;21164;54.378;10.202;2022-08-01T13:32:13;6.22;;;1.58;;
34952;SDS011;21164;54.378;10.202;2022-08-01T13:34:40;7.05;;;1.50;;
34952;SDS011;21164;54.378;10.202;2022-08-01T13:39:31;6.63;;;1.67;;
34952;SDS011;21164;54.378;10.202;2022-08-01T13:42:08;9.80;;;2.20;;
34952;SDS011;21164;54.378;10.202;2022-08-01T13:44:35;11.23;;;2.22;;
34952;SDS011;21164;54.378;10.202;2022-08-01T13:49:27;11.03;;;2.40;;
34952;SDS011;21164;54.378;10.202;2022-08-01T13:54:18;5.57;;;1.80;;
34952;SDS011;21164;54.378;10.202;2022-08-01T13:59:09;7.75;;;1.90;;
34952;SDS011;21164;54.378;10.202;2022-08-01T14:04:01;7.90;;;1.90;;
34952;SDS011;21164;54.378;10.202;2022-08-01T14:06:27;4.85;;;1.70;;
34952;SDS011;21164;54.378;10.202;2022-08-01T14:11:18;7.50;;;2.03;;
34952;SDS011;21164;54.378;10.202;2022-08-01T14:16:09;6.15;;;1.83;;
34952;SDS011;21164;54.378;10.202;2022-08-01T14:21:01;9.07;;;2.20;;
34952;SDS011;21164;54.378;10.202;2022-08-01T14:25:52;7.78;;;2.30;;
34952;SDS011;21164;54.378;10.202;2022-08-01T14:30:43;5.72;;;2.03;;
34952;SDS011;21164;54.378;10.202;2022-08-01T14:33:09;6.80;;;2.17;;
34952;SDS011;21164;54.378;10.202;2022-08-01T14:35:36;5.97;;;2.08;;
34952;SDS011;21164;54.378;10.202;2022-08-01T14:38:02;8.43;;;2.13;;
34952;SDS011;21164;54.378;10.202;2022-08-01T14:40:27;5.57;;;1.67;;
34952;SDS011;21164;54.378;10.202;2022-08-01T14:42:53;9.13;;;1.92;;
34952;SDS011;21164;54.378;10.202;2022-08-01T14:45:19;7.07;;;2.50;;
34952;SDS011;21164;54.378;10.202;2022-08-01T14:47:45;7.32;;;1.85;;
34952;SDS011;21164;54.378;10.202;2022-08-01T14:50:12;6.97;;;1.80;;
34952;SDS011;21164;54.378;10.202;2022-08-01T14:52:38;6.97;;;1.85;;
34952;SDS011;21164;54.378;10.202;2022-08-01T14:55:06;8.50;;;1.55;;
34952;SDS011;21164;54.378;10.202;2022-08-01T14:57:33;6.43;;;1.52;;
34952;SDS011;21164;54.378;10.202;2022-08-01T14:59:59;6.78;;;1.50;;
34952;SDS011;21164;54.378;10.202;2022-08-01T15:02:25;7.13;;;1.83;;
34952;SDS011;21164;54.378;10.202;2022-08-01T15:04:51;8.98;;;2.30;;
34952;SDS011;21164;54.378;10.202;2022-08-01T15:07:17;8.63;;;1.67;;
34952;SDS011;21164;54.378;10.202;2022-08-01T15:09:43;6.25;;;1.85;;
34952;SDS011;21164;54.378;10.202;2022-08-01T15:12:10;6.63;;;1.90;;
34952;SDS011;21164;54.378;10.202;2022-08-01T15:14:36;5.75;;;1.80;;
34952;SDS011;21164;54.378;10.202;2022-08-01T15:19:40;5.13;;;1.40;;
34952;SDS011;21164;54.378;10.202;2022-08-01T15:22:06;6.90;;;1.88;;
34952;SDS011;21164;54.378;10.202;2022-08-01T15:24:31;7.20;;;1.90;;
34952;SDS011;21164;54.378;10.202;2022-08-01T15:26:57;6.57;;;1.92;;
34952;SDS011;21164;54.378;10.202;2022-08-01T15:29:23;11.88;;;1.88;;
34952;SDS011;21164;54.378;10.202;2022-08-01T15:31:49;8.15;;;1.65;;
34952;SDS011;21164;54.378;10.202;2022-08-01T15:34:15;11.00;;;1.85;;
34952;SDS011;21164;54.378;10.202;2022-08-01T15:36:40;7.05;;;1.80;;
34952;SDS011;21164;54.378;10.202;2022-08-01T15:39:07;8.23;;;1.92;;
34952;SDS011;21164;54.378;10.202;2022-08-01T15:41:34;9.82;;;1.90;;
34952;SDS011;21164;54.378;10.202;2022-08-01T15:43:59;8.25;;;2.20;;
34952;SDS011;21164;54.378;10.202;2022-08-01T15:46:25;8.98;;;2.05;;
34952;SDS011;21164;54.378;10.202;2022-08-01T15:48:51;7.15;;;2.08;;
34952;SDS011;21164;54.378;10.202;2022-08-01T15:51:16;6.68;;;2.10;;
34952;SDS011;21164;54.378;10.202;2022-08-01T15:53:42;7.65;;;1.58;;
34952;SDS011;21164;54.378;10.202;2022-08-01T15:56:09;7.10;;;1.50;;
34952;SDS011;21164;54.378;10.202;2022-08-01T15:58:34;11.82;;;1.98;;
34952;SDS011;21164;54.378;10.202;2022-08-01T16:01:00;8.45;;;1.48;;
34952;SDS011;21164;54.378;10.202;2022-08-01T16:03:26;8.18;;;1.92;;
34952;SDS011;21164;54.378;10.202;2022-08-01T16:05:52;8.57;;;1.67;;
34952;SDS011;21164;54.378;10.202;2022-08-01T16:08:18;5.57;;;1.70;;
34952;SDS011;21164;54.378;10.202;2022-08-01T16:10:44;9.48;;;2.35;;
34952;SDS011;21164;54.378;10.202;2022-08-01T16:13:10;6.97;;;1.60;;
34952;SDS011;21164;54.378;10.202;2022-08-01T16:15:36;9.23;;;2.13;;
34952;SDS011;21164;54.378;10.202;2022-08-01T16:18:03;7.75;;;2.10;;
34952;SDS011;21164;54.378;10.202;2022-08-01T16:20:30;6.40;;;1.65;;
34952;SDS011;21164;54.378;10.202;2022-08-01T16:22:55;7.18;;;2.22;;